Time;durP1;ratioP1;P1;durP2;ratioP2;P2;SDS_P1;SDS_P2;PMS_P1;PMS_P2;Temp;Humidity;BMP_temperature;BMP_pressure;BME280_temperature;BME280_humidity;BME280_pressure;Samples;Min_cycle;Max_cycle;Signal;HPM_P1;HPM_P2
2023/06/13 18:58:22;;;;;;;2.90;1.60;;;;;;;14.51;58.25;98419.47;102601;1288;648371;-68
2023/06/13 19:00:53;;;;;;;3.90;1.60;;;;;;;14.47;58.58;98427.70;104016;1272;315612;-66
2023/06/13 19:03:21;;;;;;;2.30;1.50;;;;;;;14.36;59.04;98428.62;104501;1268;94277;-66
2023/06/13 19:05:48;;;;;;;2.80;1.50;;;;;;;14.29;59.30;98431.56;104466;1266;108067;-68
2023/06/13 19:08:16;;;;;;;1.20;1.00;;;;;;;14.22;59.95;98434.16;104486;1269;99136;-66
2023/06/13 19:10:43;;;;;;;2.80;1.60;;;;;;;14.11;60.37;98438.14;104440;1269;94273;-67
2023/06/13 19:13:12;;;;;;;2.60;1.60;;;;;;;14.05;60.60;98442.50;104502;1268;94714;-67
2023/06/13 19:15:40;;;;;;;3.70;1.70;;;;;;;13.98;60.99;98445.75;104454;1269;94601;-69
2023/06/13 19:18:07;;;;;;;1.70;1.50;;;;;;;13.93;61.19;98449.66;104199;1270;94267;-68
2023/06/13 19:20:35;;;;;;;2.80;1.60;;;;;;;13.88;61.24;98452.34;104043;1274;98295;-66
2023/06/13 19:23:02;;;;;;;3.10;1.60;;;;;;;13.84;61.54;98453.63;104415;1268;95308;-67
2023/06/13 19:25:29;;;;;;;2.50;1.50;;;;;;;13.81;61.72;98450.13;104270;1280;95207;-67
2023/06/13 19:27:57;;;;;;;1.80;1.60;;;;;;;13.78;61.71;98456.56;104460;1270;95310;-70
2023/06/13 19:30:44;;;;;;;2.00;1.80;;;;;;;13.74;61.93;98460.75;104261;1266;111021;-73
2023/06/13 19:33:11;;;;;;;2.10;1.50;;;;;;;13.70;62.07;98459.98;104253;1273;98802;-69
2023/06/13 19:35:40;;;;;;;3.30;1.70;;;;;;;13.64;62.42;98459.85;104577;1283;107626;-68
2023/06/13 19:38:07;;;;;;;1.70;1.50;;;;;;;13.60;62.43;98461.35;104252;1270;95310;-68
2023/06/13 19:40:35;;;;;;;2.40;1.50;;;;;;;13.59;62.48;98464.24;104499;1264;96969;-68
2023/06/13 19:43:02;;;;;;;2.30;1.20;;;;;;;13.55;62.91;98467.40;104476;1268;95224;-68
2023/06/13 19:45:29;;;;;;;4.00;1.60;;;;;;;13.46;63.38;98466.51;104459;1269;95321;-68
2023/06/13 19:47:57;;;;;;;1.80;1.70;;;;;;;13.37;63.73;98464.44;104458;1270;108496;-67
2023/06/13 19:50:25;;;;;;;3.30;2.00;;;;;;;13.30;63.87;98461.91;104441;1287;95211;-67
2023/06/13 19:52:52;;;;;;;2.30;1.50;;;;;;;13.25;63.99;98462.38;104799;1268;95285;-67
2023/06/13 19:55:21;;;;;;;3.40;1.70;;;;;;;13.19;64.69;98459.57;103923;1287;109213;-70
2023/06/13 19:57:54;;;;;;;2.50;1.40;;;;;;;13.13;65.21;98456.98;104389;1265;98816;-66
2023/06/13 20:00:28;;;;;;;2.90;1.70;;;;;;;13.07;65.60;98453.61;104330;1280;108671;-69
2023/06/13 20:02:56;;;;;;;3.20;1.90;;;;;;;13.04;65.67;98453.13;104177;1272;95619;-69
2023/06/13 20:05:25;;;;;;;1.90;1.50;;;;;;;12.98;66.43;98453.75;104427;1268;95205;-67
2023/06/13 20:08:00;;;;;;;2.60;1.40;;;;;;;12.92;66.38;98451.09;104297;1271;108951;-68
2023/06/13 20:10:27;;;;;;;3.30;1.50;;;;;;;12.87;66.79;98456.90;104116;1271;95301;-67
2023/06/13 20:12:54;;;;;;;2.10;1.60;;;;;;;12.84;66.90;98455.97;104020;1266;95314;-67
2023/06/13 20:15:28;;;;;;;2.30;1.50;;;;;;;12.78;67.53;98453.56;104184;1280;95219;-68
2023/06/13 20:17:58;;;;;;;1.90;1.40;;;;;;;12.74;67.82;98460.77;104151;1272;96219;-68
2023/06/13 20:20:26;;;;;;;1.90;1.50;;;;;;;12.67;68.47;98458.39;104441;1268;109531;-67
2023/06/13 20:22:53;;;;;;;4.60;2.00;;;;;;;12.60;68.72;98460.98;104117;1271;97995;-67
2023/06/13 20:25:21;;;;;;;2.70;2.00;;;;;;;12.60;68.59;98465.12;104141;1269;96100;-67
2023/06/13 20:27:49;;;;;;;3.10;1.90;;;;;;;12.58;69.05;98469.82;104195;1268;95205;-68
2023/06/13 20:30:16;;;;;;;2.60;1.70;;;;;;;12.55;69.11;98467.13;104433;1269;95209;-67
2023/06/13 20:32:42;;;;;;;2.90;1.60;;;;;;;12.51;69.37;98463.93;104244;1269;95218;-67
2023/06/13 20:35:10;;;;;;;1.70;1.60;;;;;;;12.47;69.51;98466.10;104344;1269;96105;-67
2023/06/13 20:37:38;;;;;;;2.10;1.70;;;;;;;12.41;70.04;98466.99;104420;1269;95708;-67
2023/06/13 20:40:09;;;;;;;2.40;1.80;;;;;;;12.38;69.99;98469.52;104650;1270;95113;-68
2023/06/13 20:42:38;;;;;;;2.30;1.70;;;;;;;12.35;70.03;98462.73;104250;1272;96970;-67
2023/06/13 20:45:09;;;;;;;2.70;2.10;;;;;;;12.31;70.19;98463.67;104214;1269;108833;-68
2023/06/13 20:47:37;;;;;;;2.90;2.00;;;;;;;12.25;70.76;98468.23;104460;1268;99249;-67
2023/06/13 20:50:11;;;;;;;6.50;1.90;;;;;;;12.22;70.79;98467.53;104105;1271;107817;-68
2023/06/13 20:52:39;;;;;;;5.00;2.30;;;;;;;12.17;71.31;98470.02;104817;1262;96092;-70
2023/06/13 20:55:07;;;;;;;3.10;1.80;;;;;;;12.15;70.88;98472.05;104403;1266;95329;-68
2023/06/13 20:57:35;;;;;;;2.30;2.10;;;;;;;12.14;71.17;98468.64;104700;1265;108526;-67
2023/06/13 21:02:52;;;;;;;2.10;1.90;;;;;;;12.08;71.54;98474.49;104972;1262;108619;-66
2023/06/13 21:05:22;;;;;;;3.10;2.20;;;;;;;12.04;71.41;98472.92;104841;1263;95194;-68
2023/06/13 21:07:51;;;;;;;4.60;2.20;;;;;;;12.00;71.88;98472.27;104983;1263;96113;-68
2023/06/13 21:10:20;;;;;;;3.00;2.20;;;;;;;11.94;72.16;98468.95;104872;1271;109553;-68
2023/06/13 21:12:47;;;;;;;2.50;2.20;;;;;;;11.87;72.40;98471.05;104834;1263;99145;-69
2023/06/13 21:15:19;;;;;;;3.50;2.10;;;;;;;11.81;72.48;98469.44;104869;1263;96090;-69
2023/06/13 21:17:47;;;;;;;3.40;2.30;;;;;;;11.76;72.76;98470.10;104930;1264;95991;-68
2023/06/13 21:20:15;;;;;;;5.60;2.50;;;;;;;11.69;73.61;98471.31;104870;1258;97030;-68
2023/06/13 21:22:44;;;;;;;3.80;2.30;;;;;;;11.63;73.70;98471.67;104639;1266;108645;-70
2023/06/13 21:25:14;;;;;;;2.50;2.10;;;;;;;11.60;73.72;98466.77;104606;1264;98149;-68
2023/06/13 21:27:42;;;;;;;6.40;2.30;;;;;;;11.60;73.99;98470.06;104480;1277;108361;-65
2023/06/13 21:30:11;;;;;;;3.30;2.50;;;;;;;11.56;74.33;98473.33;104665;1264;95258;-67
2023/06/13 21:32:39;;;;;;;2.50;2.10;;;;;;;11.55;74.36;98477.92;104871;1262;95192;-68
2023/06/13 21:35:07;;;;;;;2.60;2.10;;;;;;;11.58;73.86;98477.23;104847;1260;107949;-68
2023/06/13 21:37:34;;;;;;;3.50;2.60;;;;;;;11.57;73.90;98480.33;104810;1264;99172;-68
2023/06/13 21:40:06;;;;;;;2.90;2.30;;;;;;;11.53;74.07;98479.79;104843;1263;108741;-67
2023/06/13 21:42:35;;;;;;;4.90;2.70;;;;;;;11.49;74.35;98480.92;104936;1263;95270;-68
2023/06/13 21:45:06;;;;;;;4.10;2.40;;;;;;;11.44;74.78;98486.52;104958;1263;96142;-67
2023/06/13 21:47:34;;;;;;;7.30;2.80;;;;;;;11.36;74.86;98484.67;104807;1263;109296;-68
2023/06/13 21:50:04;;;;;;;4.60;2.70;;;;;;;11.27;75.35;98488.69;104675;1262;98172;-69
2023/06/13 21:52:32;;;;;;;2.60;2.20;;;;;;;11.21;75.40;98489.58;104528;1273;107821;-69
2023/06/13 21:55:06;;;;;;;3.40;2.60;;;;;;;11.14;76.19;98496.55;104803;1259;95326;-68
2023/06/13 21:57:33;;;;;;;3.00;2.70;;;;;;;11.10;75.70;98493.26;104737;1260;95451;-68
2023/06/13 22:00:00;;;;;;;3.00;2.70;;;;;;;11.08;76.02;98495.42;104774;1260;95212;-68
2023/06/13 22:02:27;;;;;;;3.50;2.50;;;;;;;11.05;76.15;98496.61;104773;1260;96487;-69
2023/06/13 22:04:54;;;;;;;3.50;2.40;;;;;;;11.02;76.64;98495.14;104771;1272;95545;-68
2023/06/13 22:07:28;;;;;;;3.40;2.60;;;;;;;10.97;77.14;98495.02;104964;1260;95303;-68
2023/06/13 22:09:55;;;;;;;3.30;2.90;;;;;;;10.97;76.70;98495.30;104677;1263;96995;-67
2023/06/13 22:12:29;;;;;;;4.50;2.90;;;;;;;10.97;77.09;98494.59;104917;1266;109493;-67
2023/06/13 22:14:56;;;;;;;4.90;3.10;;;;;;;10.93;77.26;98492.85;104868;1256;99516;-70
2023/06/13 22:17:28;;;;;;;3.70;2.90;;;;;;;10.91;76.92;98494.17;104743;1260;95215;-67
2023/06/13 22:20:02;;;;;;;6.40;3.30;;;;;;;10.89;77.09;98495.36;104827;1264;96309;-68
2023/06/13 22:22:29;;;;;;;3.60;3.00;;;;;;;10.84;77.46;98489.55;104985;1272;95244;-68
2023/06/13 22:24:58;;;;;;;5.20;3.30;;;;;;;10.77;77.53;98487.65;104964;1263;108239;-68
2023/06/13 22:27:27;;;;;;;4.50;3.40;;;;;;;10.72;77.74;98488.43;104880;1276;99319;-68
2023/06/13 22:29:55;;;;;;;3.70;3.00;;;;;;;10.64;78.09;98489.73;104859;1263;108176;-68
2023/06/13 22:32:24;;;;;;;5.80;3.30;;;;;;;10.58;78.31;98487.71;104776;1276;95259;-67
2023/06/13 22:34:54;;;;;;;4.70;3.20;;;;;;;10.52;78.33;98493.23;104861;1256;96010;-67
2023/06/13 22:37:34;;;;;;;6.20;3.50;;;;;;;10.49;78.24;98497.70;104962;1270;109596;-67
2023/06/13 22:40:08;;;;;;;5.30;3.50;;;;;;;10.46;78.67;98492.36;104903;1260;98338;-68
2023/06/13 22:42:39;;;;;;;6.60;3.60;;;;;;;10.41;79.10;98496.19;104950;1262;107989;-67
2023/06/13 22:45:06;;;;;;;;;;;;;;;10.35;79.87;98493.56;105158;1271;96001;-67
2023/06/13 22:47:33;;;;;;;4.70;3.30;;;;;;;10.27;80.34;98488.96;104956;1260;95229;-67
2023/06/13 22:50:01;;;;;;;6.50;3.60;;;;;;;10.23;80.17;98484.30;104903;1261;95199;-67
2023/06/13 22:52:29;;;;;;;6.00;3.40;;;;;;;10.20;80.34;98484.77;104976;1260;95201;-68
2023/06/13 22:54:56;;;;;;;7.50;4.00;;;;;;;10.17;80.23;98481.28;104673;1274;107609;-66
2023/06/13 22:57:23;;;;;;;6.70;3.50;;;;;;;10.13;80.56;98479.75;104912;1260;95204;-67
2023/06/13 22:59:50;;;;;;;5.80;3.90;;;;;;;10.06;80.96;98480.33;105109;1260;95271;-68
2023/06/13 23:02:17;;;;;;;6.60;3.60;;;;;;;9.99;81.51;98477.88;104994;1257;95208;-68
2023/06/13 23:04:46;;;;;;;5.20;3.20;;;;;;;9.94;81.78;98478.77;104832;1256;95193;-67
2023/06/13 23:07:13;;;;;;;5.70;3.70;;;;;;;9.85;82.80;98478.45;104856;1261;97188;-68
2023/06/13 23:09:40;;;;;;;5.30;3.90;;;;;;;9.81;82.81;98482.23;104898;1261;96609;-67
2023/06/13 23:12:07;;;;;;;5.50;3.90;;;;;;;9.79;82.68;98479.23;104970;1262;96636;-68
2023/06/13 23:14:34;;;;;;;6.30;4.40;;;;;;;9.76;83.20;98482.39;104874;1260;96572;-68
2023/06/13 23:17:02;;;;;;;6.30;4.20;;;;;;;9.73;82.97;98480.57;104811;1256;96642;-66
2023/06/13 23:19:30;;;;;;;5.40;4.70;;;;;;;9.72;83.27;98479.88;104655;1262;97743;-66
2023/06/13 23:21:57;;;;;;;4.80;3.80;;;;;;;9.72;83.22;98480.48;104863;1262;96559;-66
2023/06/13 23:24:26;;;;;;;8.00;4.90;;;;;;;9.71;83.49;98479.45;104983;1255;97842;-67
2023/06/13 23:26:54;;;;;;;5.30;4.00;;;;;;;9.73;83.98;98479.08;104877;1263;109827;-68
2023/06/13 23:29:21;;;;;;;8.00;5.10;;;;;;;9.72;84.56;98476.36;104666;1264;96641;-66
2023/06/13 23:31:49;;;;;;;5.70;4.00;;;;;;;9.68;84.91;98473.45;104918;1260;96565;-67
2023/06/13 23:34:16;;;;;;;7.20;4.10;;;;;;;9.64;84.90;98468.89;104730;1261;96565;-66
2023/06/13 23:36:44;;;;;;;6.50;4.80;;;;;;;9.60;84.82;98469.23;104765;1260;96562;-66
2023/06/13 23:39:11;;;;;;;7.00;4.50;;;;;;;9.57;84.84;98474.45;104901;1256;97959;-67
2023/06/13 23:41:59;;;;;;;6.00;4.40;;;;;;;9.55;84.29;98471.77;104808;1260;98166;-66
2023/06/13 23:44:26;;;;;;;8.00;4.50;;;;;;;9.52;84.45;98471.94;104895;1257;108114;-69
2023/06/13 23:46:53;;;;;;;8.20;4.90;;;;;;;9.49;86.10;98475.36;104970;1279;97429;-66
2023/06/13 23:49:21;;;;;;;7.70;4.70;;;;;;;9.47;86.51;98473.55;104936;1257;96553;-67
2023/06/13 23:51:48;;;;;;;8.30;4.80;;;;;;;9.48;86.79;98469.62;104962;1260;97969;-66
2023/06/13 23:54:15;;;;;;;6.80;4.70;;;;;;;9.46;85.99;98470.39;104960;1260;97457;-65
2023/06/13 23:56:42;;;;;;;9.20;5.00;;;;;;;9.44;86.35;98472.23;104908;1276;97136;-70
2023/06/13 23:59:10;;;;;;;8.80;4.90;;;;;;;9.42;86.71;98474.54;104973;1257;96546;-68
